LFKC/CLY METAR and TAF weather

Enter ICAO airport designator
Station Type Date Time Source
LFKC METAR 2018/12/15 02:00 UTC NOAA

LFKC 150200Z AUTO 20006KT 9999 FEW043 04/01 Q1015


Station Type Date Time Source
LFKC Decoded METAR 2018/12/15 02:00 UTC NOAA

Calvi, France (LFKC) 42-32N 008-48E 58M
Dec 14, 2018 - 09:00 PM EST / 2018.12.15 0200 UTC
Wind: from the SSW (200 degrees) at 7 MPH (6 KT):0
Visibility: greater than 7 mile(s):0
Sky conditions: mostly clear
Temperature: 39 F (4 C)
Dew Point: 33 F (1 C)
Relative Humidity: 80%
Pressure (altimeter): 29.97 in. Hg (1015 hPa)
ob: LFKC 150200Z AUTO 20006KT 9999 FEW043 04/01 Q1015
cycle: 2

Station Type Date Time Source
LFKC TAF 2018/12/14 19:08 UTC NOAA

TAF LFKC 141900Z 1419/1515 CNL


Example: see airport list